sensor_id;sensor_type;location;lat;lon;timestamp;pressure;altitude;pressure_sealevel;temperature;humidity
23261;BME280;11799;47.740;-3.390;2023-04-06T00:01:10;101875.03;;;9.55;100.00
23261;BME280;11799;47.740;-3.390;2023-04-06T00:03:36;101874.88;;;9.58;100.00
23261;BME280;11799;47.740;-3.390;2023-04-06T00:06:02;101876.75;;;9.56;100.00
23261;BME280;11799;47.740;-3.390;2023-04-06T00:08:27;101874.97;;;9.56;100.00
23261;BME280;11799;47.740;-3.390;2023-04-06T00:10:54;101868.06;;;9.54;100.00
23261;BME280;11799;47.740;-3.390;2023-04-06T00:13:19;101877.00;;;9.51;100.00
23261;BME280;11799;47.740;-3.390;2023-04-06T00:15:45;101882.38;;;9.50;100.00
23261;BME280;11799;47.740;-3.390;2023-04-06T00:18:10;101877.34;;;9.45;100.00
23261;BME280;11799;47.740;-3.390;2023-04-06T00:20:36;101880.16;;;9.42;100.00
23261;BME280;11799;47.740;-3.390;2023-04-06T00:23:02;101867.81;;;9.43;100.00
23261;BME280;11799;47.740;-3.390;2023-04-06T00:25:27;101873.94;;;9.43;100.00
23261;BME280;11799;47.740;-3.390;2023-04-06T00:27:53;101872.16;;;9.44;100.00
23261;BME280;11799;47.740;-3.390;2023-04-06T00:30:18;101878.19;;;9.46;100.00
23261;BME280;11799;47.740;-3.390;2023-04-06T00:32:44;101875.56;;;9.46;100.00
23261;BME280;11799;47.740;-3.390;2023-04-06T00:35:10;101874.53;;;9.48;100.00
23261;BME280;11799;47.740;-3.390;2023-04-06T00:37:36;101867.56;;;9.47;100.00
23261;BME280;11799;47.740;-3.390;2023-04-06T00:40:02;101854.38;;;9.47;100.00
23261;BME280;11799;47.740;-3.390;2023-04-06T00:42:28;101861.19;;;9.51;100.00
23261;BME280;11799;47.740;-3.390;2023-04-06T00:44:58;101862.81;;;9.54;100.00
23261;BME280;11799;47.740;-3.390;2023-04-06T00:47:24;101857.44;;;9.55;100.00
23261;BME280;11799;47.740;-3.390;2023-04-06T00:49:51;101853.88;;;9.56;100.00
23261;BME280;11799;47.740;-3.390;2023-04-06T00:52:17;101851.06;;;9.59;100.00
23261;BME280;11799;47.740;-3.390;2023-04-06T00:54:45;101836.16;;;9.58;100.00
23261;BME280;11799;47.740;-3.390;2023-04-06T00:57:12;101829.78;;;9.63;100.00
23261;BME280;11799;47.740;-3.390;2023-04-06T00:59:39;101828.84;;;9.64;100.00
23261;BME280;11799;47.740;-3.390;2023-04-06T01:02:08;101846.28;;;9.66;100.00
23261;BME280;11799;47.740;-3.390;2023-04-06T01:04:41;101840.91;;;9.68;100.00
23261;BME280;11799;47.740;-3.390;2023-04-06T01:07:12;101833.84;;;9.68;100.00
23261;BME280;11799;47.740;-3.390;2023-04-06T01:09:46;101826.69;;;9.70;100.00
23261;BME280;11799;47.740;-3.390;2023-04-06T01:12:19;101830.19;;;9.71;100.00
23261;BME280;11799;47.740;-3.390;2023-04-06T01:14:44;101823.03;;;9.73;100.00
23261;BME280;11799;47.740;-3.390;2023-04-06T01:17:10;101825.50;;;9.76;100.00
23261;BME280;11799;47.740;-3.390;2023-04-06T01:19:36;101831.53;;;9.78;100.00
23261;BME280;11799;47.740;-3.390;2023-04-06T01:22:02;101822.69;;;9.79;100.00
23261;BME280;11799;47.740;-3.390;2023-04-06T01:24:30;101821.84;;;9.78;100.00
23261;BME280;11799;47.740;-3.390;2023-04-06T01:27:16;101822.59;;;9.80;100.00
23261;BME280;11799;47.740;-3.390;2023-04-06T01:30:08;101826.72;;;9.84;100.00
23261;BME280;11799;47.740;-3.390;2023-04-06T01:32:50;101816.94;;;9.86;100.00
23261;BME280;11799;47.740;-3.390;2023-04-06T01:35:23;101817.59;;;9.90;100.00
23261;BME280;11799;47.740;-3.390;2023-04-06T01:37:57;101810.53;;;9.90;100.00
23261;BME280;11799;47.740;-3.390;2023-04-06T01:40:29;101792.81;;;9.92;100.00
23261;BME280;11799;47.740;-3.390;2023-04-06T01:42:55;101788.38;;;9.93;100.00
23261;BME280;11799;47.740;-3.390;2023-04-06T01:45:29;101782.94;;;9.96;100.00
23261;BME280;11799;47.740;-3.390;2023-04-06T01:48:00;101782.00;;;9.97;100.00
23261;BME280;11799;47.740;-3.390;2023-04-06T01:50:27;101780.09;;;9.99;100.00
23261;BME280;11799;47.740;-3.390;2023-04-06T01:52:53;101760.69;;;10.00;100.00
23261;BME280;11799;47.740;-3.390;2023-04-06T01:55:19;101771.34;;;9.99;100.00
23261;BME280;11799;47.740;-3.390;2023-04-06T01:58:04;101785.13;;;10.04;100.00
23261;BME280;11799;47.740;-3.390;2023-04-06T02:00:34;101792.94;;;10.05;100.00
23261;BME280;11799;47.740;-3.390;2023-04-06T02:03:00;101784.19;;;10.05;100.00
23261;BME280;11799;47.740;-3.390;2023-04-06T02:05:30;101787.56;;;10.07;100.00
23261;BME280;11799;47.740;-3.390;2023-04-06T02:07:57;101790.13;;;10.08;100.00
23261;BME280;11799;47.740;-3.390;2023-04-06T02:10:31;101794.47;;;10.09;100.00
23261;BME280;11799;47.740;-3.390;2023-04-06T02:13:01;101788.41;;;10.07;100.00
23261;BME280;11799;47.740;-3.390;2023-04-06T02:15:27;101785.50;;;10.12;100.00
23261;BME280;11799;47.740;-3.390;2023-04-06T02:17:52;101787.19;;;10.13;100.00
23261;BME280;11799;47.740;-3.390;2023-04-06T02:20:18;101773.06;;;10.14;100.00
23261;BME280;11799;47.740;-3.390;2023-04-06T02:22:44;101772.97;;;10.15;100.00
23261;BME280;11799;47.740;-3.390;2023-04-06T02:25:10;101774.75;;;10.15;100.00
23261;BME280;11799;47.740;-3.390;2023-04-06T02:27:36;101778.16;;;10.17;100.00
23261;BME280;11799;47.740;-3.390;2023-04-06T02:30:05;101773.63;;;10.19;100.00
23261;BME280;11799;47.740;-3.390;2023-04-06T02:32:31;101772.72;;;10.20;100.00
23261;BME280;11799;47.740;-3.390;2023-04-06T02:34:57;101766.41;;;10.22;100.00
23261;BME280;11799;47.740;-3.390;2023-04-06T02:37:23;101760.19;;;10.23;100.00
23261;BME280;11799;47.740;-3.390;2023-04-06T02:39:49;101761.78;;;10.26;100.00
23261;BME280;11799;47.740;-3.390;2023-04-06T02:42:16;101758.22;;;10.27;100.00
23261;BME280;11799;47.740;-3.390;2023-04-06T02:44:43;101762.53;;;10.28;100.00
23261;BME280;11799;47.740;-3.390;2023-04-06T02:47:09;101766.88;;;10.29;100.00
23261;BME280;11799;47.740;-3.390;2023-04-06T02:49:36;101765.09;;;10.30;100.00
23261;BME280;11799;47.740;-3.390;2023-04-06T02:52:02;101769.34;;;10.32;100.00
23261;BME280;11799;47.740;-3.390;2023-04-06T02:54:32;101764.81;;;10.34;100.00
23261;BME280;11799;47.740;-3.390;2023-04-06T02:56:59;101773.50;;;10.36;100.00
23261;BME280;11799;47.740;-3.390;2023-04-06T02:59:33;101772.53;;;10.37;100.00
23261;BME280;11799;47.740;-3.390;2023-04-06T03:02:09;101777.72;;;10.39;100.00
23261;BME280;11799;47.740;-3.390;2023-04-06T03:04:36;101775.94;;;10.39;100.00
23261;BME280;11799;47.740;-3.390;2023-04-06T03:07:04;101767.88;;;10.41;100.00
23261;BME280;11799;47.740;-3.390;2023-04-06T03:09:39;101771.38;;;10.41;100.00
23261;BME280;11799;47.740;-3.390;2023-04-06T03:12:05;101770.44;;;10.42;100.00
23261;BME280;11799;47.740;-3.390;2023-04-06T03:14:39;101769.50;;;10.43;100.00
23261;BME280;11799;47.740;-3.390;2023-04-06T03:17:05;101763.25;;;10.44;100.00
23261;BME280;11799;47.740;-3.390;2023-04-06T03:19:31;101752.63;;;10.46;100.00
23261;BME280;11799;47.740;-3.390;2023-04-06T03:21:59;101760.53;;;10.46;100.00
23261;BME280;11799;47.740;-3.390;2023-04-06T03:24:25;101760.44;;;10.47;100.00
23261;BME280;11799;47.740;-3.390;2023-04-06T03:26:50;101756.84;;;10.48;100.00
23261;BME280;11799;47.740;-3.390;2023-04-06T03:29:17;101769.13;;;10.49;100.00
23261;BME280;11799;47.740;-3.390;2023-04-06T03:31:42;101762.03;;;10.50;100.00
23261;BME280;11799;47.740;-3.390;2023-04-06T03:34:30;101763.75;;;10.51;100.00
23261;BME280;11799;47.740;-3.390;2023-04-06T03:36:56;101776.00;;;10.52;100.00
23261;BME280;11799;47.740;-3.390;2023-04-06T03:39:22;101774.19;;;10.52;100.00
23261;BME280;11799;47.740;-3.390;2023-04-06T03:41:49;101775.16;;;10.51;100.00
23261;BME280;11799;47.740;-3.390;2023-04-06T03:44:40;101777.78;;;10.51;100.00
23261;BME280;11799;47.740;-3.390;2023-04-06T03:47:06;101776.94;;;10.51;100.00
23261;BME280;11799;47.740;-3.390;2023-04-06T03:49:32;101772.50;;;10.51;100.00
23261;BME280;11799;47.740;-3.390;2023-04-06T03:51:58;101766.28;;;10.52;100.00
23261;BME280;11799;47.740;-3.390;2023-04-06T03:54:24;101768.06;;;10.52;100.00
23261;BME280;11799;47.740;-3.390;2023-04-06T03:56:49;101764.69;;;10.50;100.00
23261;BME280;11799;47.740;-3.390;2023-04-06T03:59:15;101765.63;;;10.49;100.00
23261;BME280;11799;47.740;-3.390;2023-04-06T04:01:41;101754.22;;;10.48;100.00
23261;BME280;11799;47.740;-3.390;2023-04-06T04:04:06;101750.72;;;10.48;100.00
23261;BME280;11799;47.740;-3.390;2023-04-06T04:06:32;101751.66;;;10.47;100.00
23261;BME280;11799;47.740;-3.390;2023-04-06T04:08:58;101750.72;;;10.48;100.00
23261;BME280;11799;47.740;-3.390;2023-04-06T04:11:23;101752.69;;;10.44;100.00
23261;BME280;11799;47.740;-3.390;2023-04-06T04:13:55;101743.94;;;10.44;100.00
23261;BME280;11799;47.740;-3.390;2023-04-06T04:16:21;101754.41;;;10.45;100.00
23261;BME280;11799;47.740;-3.390;2023-04-06T04:18:46;101742.91;;;10.46;100.00
23261;BME280;11799;47.740;-3.390;2023-04-06T04:21:14;101739.41;;;10.46;100.00
23261;BME280;11799;47.740;-3.390;2023-04-06T04:23:39;101729.69;;;10.46;100.00
23261;BME280;11799;47.740;-3.390;2023-04-06T04:26:05;101739.31;;;10.47;100.00
23261;BME280;11799;47.740;-3.390;2023-04-06T04:28:31;101741.00;;;10.48;100.00
23261;BME280;11799;47.740;-3.390;2023-04-06T04:30:57;101739.22;;;10.49;100.00
23261;BME280;11799;47.740;-3.390;2023-04-06T04:33:22;101732.91;;;10.51;100.00
23261;BME280;11799;47.740;-3.390;2023-04-06T04:35:50;101737.31;;;10.51;100.00
23261;BME280;11799;47.740;-3.390;2023-04-06T04:38:19;101733.75;;;10.52;100.00
23261;BME280;11799;47.740;-3.390;2023-04-06T04:40:50;101736.38;;;10.52;100.00
23261;BME280;11799;47.740;-3.390;2023-04-06T04:43:15;101735.44;;;10.53;100.00
23261;BME280;11799;47.740;-3.390;2023-04-06T04:45:41;101731.00;;;10.53;100.00
23261;BME280;11799;47.740;-3.390;2023-04-06T04:48:32;101723.84;;;10.55;100.00
23261;BME280;11799;47.740;-3.390;2023-04-06T04:51:01;101723.75;;;10.57;100.00
23261;BME280;11799;47.740;-3.390;2023-04-06T04:53:35;101723.75;;;10.57;100.00
23261;BME280;11799;47.740;-3.390;2023-04-06T04:56:11;101705.44;;;10.54;100.00
23261;BME280;11799;47.740;-3.390;2023-04-06T04:58:37;101706.84;;;10.59;100.00
23261;BME280;11799;47.740;-3.390;2023-04-06T05:01:03;101710.25;;;10.62;100.00
23261;BME280;11799;47.740;-3.390;2023-04-06T05:03:28;101697.88;;;10.62;100.00
23261;BME280;11799;47.740;-3.390;2023-04-06T05:06:01;101697.88;;;10.62;100.00
23261;BME280;11799;47.740;-3.390;2023-04-06T05:08:30;101691.66;;;10.63;100.00
23261;BME280;11799;47.740;-3.390;2023-04-06T05:10:57;101681.94;;;10.64;100.00
23261;BME280;11799;47.740;-3.390;2023-04-06T05:13:23;101691.66;;;10.63;100.00
23261;BME280;11799;47.740;-3.390;2023-04-06T05:15:50;101691.56;;;10.65;100.00
23261;BME280;11799;47.740;-3.390;2023-04-06T05:18:31;101684.47;;;10.65;100.00
23261;BME280;11799;47.740;-3.390;2023-04-06T05:20:58;101685.31;;;10.66;100.00
23261;BME280;11799;47.740;-3.390;2023-04-06T05:23:31;101682.59;;;10.67;100.00
23261;BME280;11799;47.740;-3.390;2023-04-06T05:25:59;101678.16;;;10.68;100.00
23261;BME280;11799;47.740;-3.390;2023-04-06T05:28:25;101681.63;;;10.68;100.00
23261;BME280;11799;47.740;-3.390;2023-04-06T05:30:51;101682.50;;;10.69;100.00
23261;BME280;11799;47.740;-3.390;2023-04-06T05:33:17;101686.81;;;10.70;100.00
23261;BME280;11799;47.740;-3.390;2023-04-06T05:36:03;101700.88;;;10.70;100.00
23261;BME280;11799;47.740;-3.390;2023-04-06T05:38:30;101696.34;;;10.72;100.00
23261;BME280;11799;47.740;-3.390;2023-04-06T05:41:00;101703.44;;;10.72;100.00
23261;BME280;11799;47.740;-3.390;2023-04-06T05:43:30;101711.25;;;10.73;100.00
23261;BME280;11799;47.740;-3.390;2023-04-06T05:45:58;101712.84;;;10.76;100.00
23261;BME280;11799;47.740;-3.390;2023-04-06T05:48:24;101720.78;;;10.76;100.00
23261;BME280;11799;47.740;-3.390;2023-04-06T05:50:50;101720.78;;;10.76;100.00
23261;BME280;11799;47.740;-3.390;2023-04-06T05:53:19;101717.09;;;10.78;100.00
23261;BME280;11799;47.740;-3.390;2023-04-06T05:55:51;101717.94;;;10.79;100.00
23261;BME280;11799;47.740;-3.390;2023-04-06T05:58:19;101720.47;;;10.80;100.00
23261;BME280;11799;47.740;-3.390;2023-04-06T06:00:46;101724.81;;;10.81;100.00
23261;BME280;11799;47.740;-3.390;2023-04-06T06:03:14;101716.78;;;10.83;100.00
23261;BME280;11799;47.740;-3.390;2023-04-06T06:05:45;101724.63;;;10.84;100.00
23261;BME280;11799;47.740;-3.390;2023-04-06T06:08:17;101718.41;;;10.85;100.00
23261;BME280;11799;47.740;-3.390;2023-04-06T06:10:43;101725.38;;;10.86;100.00
23261;BME280;11799;47.740;-3.390;2023-04-06T06:13:11;101718.28;;;10.87;100.00
23261;BME280;11799;47.740;-3.390;2023-04-06T06:15:36;101732.25;;;10.89;100.00
23261;BME280;11799;47.740;-3.390;2023-04-06T06:18:02;101726.97;;;10.89;100.00
23261;BME280;11799;47.740;-3.390;2023-04-06T06:20:28;101727.72;;;10.91;100.00
23261;BME280;11799;47.740;-3.390;2023-04-06T06:22:55;101736.50;;;10.91;100.00
23261;BME280;11799;47.740;-3.390;2023-04-06T06:25:21;101739.88;;;10.94;100.00
23261;BME280;11799;47.740;-3.390;2023-04-06T06:27:48;101742.53;;;10.94;100.00
23261;BME280;11799;47.740;-3.390;2023-04-06T06:30:16;101745.06;;;10.95;100.00
23261;BME280;11799;47.740;-3.390;2023-04-06T06:32:43;101745.06;;;10.95;100.00
23261;BME280;11799;47.740;-3.390;2023-04-06T06:35:09;101751.94;;;10.98;100.00
23261;BME280;11799;47.740;-3.390;2023-04-06T06:37:34;101742.19;;;10.98;100.00
23261;BME280;11799;47.740;-3.390;2023-04-06T06:40:01;101750.03;;;11.00;100.00
23261;BME280;11799;47.740;-3.390;2023-04-06T06:42:27;101750.78;;;11.02;100.00
23261;BME280;11799;47.740;-3.390;2023-04-06T06:45:13;101755.22;;;11.01;100.00
23261;BME280;11799;47.740;-3.390;2023-04-06T06:47:39;101754.28;;;11.02;100.00
23261;BME280;11799;47.740;-3.390;2023-04-06T06:50:06;101751.53;;;11.04;100.00
23261;BME280;11799;47.740;-3.390;2023-04-06T06:52:32;101753.22;;;11.05;100.00
23261;BME280;11799;47.740;-3.390;2023-04-06T06:54:58;101756.63;;;11.07;100.00
23261;BME280;11799;47.740;-3.390;2023-04-06T06:57:25;101755.66;;;11.08;100.00
23261;BME280;11799;47.740;-3.390;2023-04-06T06:59:50;101759.06;;;11.10;100.00
23261;BME280;11799;47.740;-3.390;2023-04-06T07:02:18;101749.25;;;11.12;100.00
23261;BME280;11799;47.740;-3.390;2023-04-06T07:04:43;101759.63;;;11.15;100.00
23261;BME280;11799;47.740;-3.390;2023-04-06T07:07:09;101762.16;;;11.16;100.00
23261;BME280;11799;47.740;-3.390;2023-04-06T07:09:35;101770.00;;;11.18;100.00
23261;BME280;11799;47.740;-3.390;2023-04-06T07:12:01;101763.75;;;11.19;100.00
23261;BME280;11799;47.740;-3.390;2023-04-06T07:14:27;101771.69;;;11.19;100.00
23261;BME280;11799;47.740;-3.390;2023-04-06T07:16:52;101774.34;;;11.19;100.00
23261;BME280;11799;47.740;-3.390;2023-04-06T07:19:18;101769.91;;;11.19;100.00
23261;BME280;11799;47.740;-3.390;2023-04-06T07:21:44;101772.44;;;11.21;100.00
23261;BME280;11799;47.740;-3.390;2023-04-06T07:24:10;101773.28;;;11.21;100.00
23261;BME280;11799;47.740;-3.390;2023-04-06T07:26:35;101771.50;;;11.22;100.00
23261;BME280;11799;47.740;-3.390;2023-04-06T07:29:02;101768.00;;;11.21;100.00
23261;BME280;11799;47.740;-3.390;2023-04-06T07:31:28;101773.28;;;11.21;100.00
23261;BME280;11799;47.740;-3.390;2023-04-06T07:33:54;101770.63;;;11.21;100.00
23261;BME280;11799;47.740;-3.390;2023-04-06T07:36:20;101760.91;;;11.22;100.00
23261;BME280;11799;47.740;-3.390;2023-04-06T07:38:46;101752.97;;;11.22;100.00
23261;BME280;11799;47.740;-3.390;2023-04-06T07:41:12;101759.22;;;11.21;100.00
23261;BME280;11799;47.740;-3.390;2023-04-06T07:43:38;101748.53;;;11.22;100.00
23261;BME280;11799;47.740;-3.390;2023-04-06T07:46:04;101745.91;;;11.22;100.00
23261;BME280;11799;47.740;-3.390;2023-04-06T07:48:30;101747.38;;;11.27;100.00
23261;BME280;11799;47.740;-3.390;2023-04-06T07:51:06;101753.44;;;11.29;100.00
23261;BME280;11799;47.740;-3.390;2023-04-06T07:53:35;101758.63;;;11.30;100.00
23261;BME280;11799;47.740;-3.390;2023-04-06T07:56:01;101766.44;;;11.32;100.00
23261;BME280;11799;47.740;-3.390;2023-04-06T07:58:27;101774.38;;;11.32;100.00
23261;BME280;11799;47.740;-3.390;2023-04-06T08:00:52;101777.78;;;11.34;100.00
23261;BME280;11799;47.740;-3.390;2023-04-06T08:03:19;101788.34;;;11.34;100.00
23261;BME280;11799;47.740;-3.390;2023-04-06T08:05:46;101778.53;;;11.36;100.00
23261;BME280;11799;47.740;-3.390;2023-04-06T08:08:12;101776.72;;;11.36;100.00
23261;BME280;11799;47.740;-3.390;2023-04-06T08:10:37;101781.06;;;11.37;100.00
23261;BME280;11799;47.740;-3.390;2023-04-06T08:13:03;101780.13;;;11.38;100.00
23261;BME280;11799;47.740;-3.390;2023-04-06T08:15:28;101785.41;;;11.38;100.00
23261;BME280;11799;47.740;-3.390;2023-04-06T08:17:54;101781.72;;;11.41;100.00
23261;BME280;11799;47.740;-3.390;2023-04-06T08:20:22;101793.13;;;11.41;100.00
23261;BME280;11799;47.740;-3.390;2023-04-06T08:22:48;101779.06;;;11.41;100.00
23261;BME280;11799;47.740;-3.390;2023-04-06T08:25:13;101780.66;;;11.43;100.00
23261;BME280;11799;47.740;-3.390;2023-04-06T08:27:39;101787.66;;;11.44;100.00
23261;BME280;11799;47.740;-3.390;2023-04-06T08:30:05;101784.91;;;11.46;100.00
23261;BME280;11799;47.740;-3.390;2023-04-06T08:32:31;101787.56;;;11.46;100.00
23261;BME280;11799;47.740;-3.390;2023-04-06T08:34:56;101790.09;;;11.47;100.00
23261;BME280;11799;47.740;-3.390;2023-04-06T08:37:22;101787.34;;;11.49;100.00
23261;BME280;11799;47.740;-3.390;2023-04-06T08:39:48;101787.16;;;11.52;100.00
23261;BME280;11799;47.740;-3.390;2023-04-06T08:42:19;101786.94;;;11.55;100.00
23261;BME280;11799;47.740;-3.390;2023-04-06T08:44:46;101782.91;;;11.62;100.00
23261;BME280;11799;47.740;-3.390;2023-04-06T08:47:12;101773.72;;;11.68;100.00
23261;BME280;11799;47.740;-3.390;2023-04-06T08:49:38;101768.00;;;11.74;100.00
23261;BME280;11799;47.740;-3.390;2023-04-06T08:52:07;101779.06;;;11.80;100.00
23261;BME280;11799;47.740;-3.390;2023-04-06T08:54:34;101777.91;;;11.84;100.00
23261;BME280;11799;47.740;-3.390;2023-04-06T08:57:00;101783.00;;;11.87;100.00
23261;BME280;11799;47.740;-3.390;2023-04-06T08:59:27;101788.94;;;11.91;100.00
23261;BME280;11799;47.740;-3.390;2023-04-06T09:01:54;101782.56;;;11.94;100.00
23261;BME280;11799;47.740;-3.390;2023-04-06T09:04:20;101790.31;;;11.97;100.00
23261;BME280;11799;47.740;-3.390;2023-04-06T09:06:46;101783.84;;;12.01;100.00
23261;BME280;11799;47.740;-3.390;2023-04-06T09:09:12;101792.34;;;12.06;100.00
23261;BME280;11799;47.740;-3.390;2023-04-06T09:11:48;101783.34;;;12.08;100.00
23261;BME280;11799;47.740;-3.390;2023-04-06T09:14:14;101789.38;;;12.10;100.00
23261;BME280;11799;47.740;-3.390;2023-04-06T09:16:42;101785.78;;;12.11;100.00
23261;BME280;11799;47.740;-3.390;2023-04-06T09:19:09;101789.13;;;12.13;100.00
23261;BME280;11799;47.740;-3.390;2023-04-06T09:21:34;101788.31;;;12.13;100.00
23261;BME280;11799;47.740;-3.390;2023-04-06T09:24:02;101780.47;;;12.11;100.00
23261;BME280;11799;47.740;-3.390;2023-04-06T09:26:28;101776.75;;;12.14;100.00
23261;BME280;11799;47.740;-3.390;2023-04-06T09:28:55;101789.66;;;12.18;100.00
23261;BME280;11799;47.740;-3.390;2023-04-06T09:31:29;101791.34;;;12.19;100.00
23261;BME280;11799;47.740;-3.390;2023-04-06T09:33:56;101792.94;;;12.22;100.00
23261;BME280;11799;47.740;-3.390;2023-04-06T09:36:32;101786.81;;;12.21;100.00
23261;BME280;11799;47.740;-3.390;2023-04-06T09:39:01;101787.66;;;12.22;100.00
23261;BME280;11799;47.740;-3.390;2023-04-06T09:41:28;101797.28;;;12.23;100.00
23261;BME280;11799;47.740;-3.390;2023-04-06T09:44:06;101798.13;;;12.23;100.00
23261;BME280;11799;47.740;-3.390;2023-04-06T09:46:37;101802.59;;;12.23;100.00
23261;BME280;11799;47.740;-3.390;2023-04-06T09:49:05;101812.00;;;12.27;100.00
23261;BME280;11799;47.740;-3.390;2023-04-06T09:51:36;101806.72;;;12.27;100.00
23261;BME280;11799;47.740;-3.390;2023-04-06T09:54:02;101812.00;;;12.27;100.00
23261;BME280;11799;47.740;-3.390;2023-04-06T09:56:51;101819.00;;;12.28;100.00
23261;BME280;11799;47.740;-3.390;2023-04-06T09:59:24;101816.88;;;12.33;100.00
23261;BME280;11799;47.740;-3.390;2023-04-06T10:01:53;101818.16;;;12.40;100.00
23261;BME280;11799;47.740;-3.390;2023-04-06T10:04:29;101819.66;;;12.44;100.00
23261;BME280;11799;47.740;-3.390;2023-04-06T10:07:01;101816.34;;;12.53;100.00
23261;BME280;11799;47.740;-3.390;2023-04-06T10:09:28;101814.97;;;12.61;100.00
23261;BME280;11799;47.740;-3.390;2023-04-06T10:12:03;101821.06;;;12.74;100.00
23261;BME280;11799;47.740;-3.390;2023-04-06T10:14:29;101828.47;;;12.81;100.00
23261;BME280;11799;47.740;-3.390;2023-04-06T10:16:56;101834.41;;;12.85;100.00
23261;BME280;11799;47.740;-3.390;2023-04-06T10:19:25;101835.88;;;12.89;100.00
23261;BME280;11799;47.740;-3.390;2023-04-06T10:21:54;101843.84;;;12.89;100.00
23261;BME280;11799;47.740;-3.390;2023-04-06T10:24:23;101837.69;;;12.88;100.00
23261;BME280;11799;47.740;-3.390;2023-04-06T10:27:02;101840.13;;;12.92;100.00
23261;BME280;11799;47.740;-3.390;2023-04-06T10:29:28;101851.38;;;12.95;100.00
23261;BME280;11799;47.740;-3.390;2023-04-06T10:31:54;101849.44;;;12.97;100.00
23261;BME280;11799;47.740;-3.390;2023-04-06T10:34:20;101844.25;;;12.96;100.00
23261;BME280;11799;47.740;-3.390;2023-04-06T10:36:46;101837.88;;;12.98;100.00
23261;BME280;11799;47.740;-3.390;2023-04-06T10:39:12;101837.03;;;12.98;100.00
23261;BME280;11799;47.740;-3.390;2023-04-06T10:41:43;101835.97;;;13.00;100.00
23261;BME280;11799;47.740;-3.390;2023-04-06T10:44:25;101835.13;;;13.00;100.00
23261;BME280;11799;47.740;-3.390;2023-04-06T10:46:58;101837.66;;;13.01;100.00
23261;BME280;11799;47.740;-3.390;2023-04-06T10:49:26;101838.63;;;13.00;100.00
23261;BME280;11799;47.740;-3.390;2023-04-06T10:51:53;101840.31;;;13.01;100.00
23261;BME280;11799;47.740;-3.390;2023-04-06T10:54:21;101840.22;;;13.03;100.00
23261;BME280;11799;47.740;-3.390;2023-04-06T10:56:49;101828.66;;;13.04;100.00
23261;BME280;11799;47.740;-3.390;2023-04-06T10:59:21;101831.94;;;13.07;100.00
23261;BME280;11799;47.740;-3.390;2023-04-06T11:01:47;101827.03;;;13.14;100.00
23261;BME280;11799;47.740;-3.390;2023-04-06T11:04:16;101828.41;;;13.19;100.00
23261;BME280;11799;47.740;-3.390;2023-04-06T11:06:46;101827.13;;;13.25;100.00
23261;BME280;11799;47.740;-3.390;2023-04-06T11:09:23;101828.22;;;13.34;100.00
23261;BME280;11799;47.740;-3.390;2023-04-06T11:11:48;101831.91;;;13.44;100.00
23261;BME280;11799;47.740;-3.390;2023-04-06T11:14:14;101826.88;;;13.52;100.00
23261;BME280;11799;47.740;-3.390;2023-04-06T11:16:39;101827.91;;;13.62;100.00
23261;BME280;11799;47.740;-3.390;2023-04-06T11:19:05;101818.50;;;13.69;100.00
23261;BME280;11799;47.740;-3.390;2023-04-06T11:21:35;101821.66;;;13.74;100.00
23261;BME280;11799;47.740;-3.390;2023-04-06T11:26:52;101835.22;;;13.82;100.00
23261;BME280;11799;47.740;-3.390;2023-04-06T11:29:22;101838.59;;;13.84;100.00
23261;BME280;11799;47.740;-3.390;2023-04-06T11:31:52;101831.94;;;13.90;100.00
23261;BME280;11799;47.740;-3.390;2023-04-06T11:36:45;101828.00;;;13.96;100.00
23261;BME280;11799;47.740;-3.390;2023-04-06T11:39:19;101827.63;;;14.00;100.00
23261;BME280;11799;47.740;-3.390;2023-04-06T11:41:52;101819.81;;;14.10;100.00
23261;BME280;11799;47.740;-3.390;2023-04-06T11:44:40;101812.09;;;14.18;100.00
23261;BME280;11799;47.740;-3.390;2023-04-06T11:47:09;101818.66;;;14.25;100.00
23261;BME280;11799;47.740;-3.390;2023-04-06T11:49:39;101814.66;;;14.31;100.00
23261;BME280;11799;47.740;-3.390;2023-04-06T11:52:16;101803.56;;;14.37;100.00
23261;BME280;11799;47.740;-3.390;2023-04-06T11:54:42;101813.94;;;14.40;100.00
23261;BME280;11799;47.740;-3.390;2023-04-06T11:57:08;101813.75;;;14.43;100.00
23261;BME280;11799;47.740;-3.390;2023-04-06T11:59:35;101816.50;;;14.52;100.00
23261;BME280;11799;47.740;-3.390;2023-04-06T12:02:01;101815.91;;;14.60;100.00
23261;BME280;11799;47.740;-3.390;2023-04-06T12:04:27;101821.69;;;14.65;100.00
23261;BME280;11799;47.740;-3.390;2023-04-06T12:06:52;101818.91;;;14.67;100.00
23261;BME280;11799;47.740;-3.390;2023-04-06T12:09:18;101814.44;;;14.67;100.00
23261;BME280;11799;47.740;-3.390;2023-04-06T12:11:44;101828.34;;;14.71;100.00
23261;BME280;11799;47.740;-3.390;2023-04-06T12:14:10;101828.59;;;14.79;100.00
23261;BME280;11799;47.740;-3.390;2023-04-06T12:16:36;101836.69;;;14.89;100.00
23261;BME280;11799;47.740;-3.390;2023-04-06T12:19:02;101835.94;;;14.98;100.00
23261;BME280;11799;47.740;-3.390;2023-04-06T12:21:28;101824.66;;;15.05;100.00
23261;BME280;11799;47.740;-3.390;2023-04-06T12:23:54;101810.38;;;15.06;100.00
23261;BME280;11799;47.740;-3.390;2023-04-06T12:26:23;101819.66;;;15.23;100.00
23261;BME280;11799;47.740;-3.390;2023-04-06T12:28:50;101815.66;;;15.29;100.00
23261;BME280;11799;47.740;-3.390;2023-04-06T12:31:17;101810.31;;;15.40;100.00
23261;BME280;11799;47.740;-3.390;2023-04-06T12:33:44;101805.56;;;15.43;100.00
23261;BME280;11799;47.740;-3.390;2023-04-06T12:36:12;101811.13;;;15.51;100.00
23261;BME280;11799;47.740;-3.390;2023-04-06T12:38:39;101811.97;;;15.52;100.00
23261;BME280;11799;47.740;-3.390;2023-04-06T12:41:06;101805.56;;;15.43;100.00